In Rescue
 
Open Full Screen Window  High Contrast Mode
Wind Gusting 22 knots
12
May 13, 2021 10:40 AM EDT
Weather Information
Wind Direction
  030 °
Wind Speed
  12 kt (14 mph)
Wind Gust
  22 kt (25 mph)
Altimeter
30.42 in
Visibility
10 SM
Temperature
15° C
59° F
Dewpoint
00° C
32° F
Humidity
36%
1hr Rain Fall
00.00 in.
24hr Rain Fall
00.00 in.
Sky Condition
Clear
VFR

METAR KEDJ 131440Z AUTO 03012G22KT 10SM CLR 15/00 A3042 RMK AO1

FAA Disclaimer: The data displayed is for advisory purposes only and is not to be used for flight planning or operations.